Time;durP1;ratioP1;P1;durP2;ratioP2;P2;SDS_P1;SDS_P2;PMS_P1;PMS_P2;Temp;Humidity;BMP_temperature;BMP_pressure;BME280_temperature;BME280_humidity;BME280_pressure;Samples;Min_cycle;Max_cycle;Signal;HPM_P1;HPM_P2
2021/07/05 00:00:48;;;;;;;3.25;1.75;;;22.90;99.90;;;;;;4951037;29;20280;-66
2021/07/05 00:03:15;;;;;;;1.60;1.50;;;22.90;99.90;;;;;;4949361;28;20728;-67
2021/07/05 00:05:43;;;;;;;1.80;1.70;;;22.90;99.90;;;;;;4950235;29;20201;-67
2021/07/05 00:08:10;;;;;;;1.67;1.58;;;22.90;99.90;;;;;;4950490;29;20661;-67
2021/07/05 00:10:37;;;;;;;1.33;1.33;;;22.90;99.90;;;;;;4949503;28;20205;-65
2021/07/05 00:13:04;;;;;;;1.67;1.58;;;23.00;99.90;;;;;;4950667;29;20205;-66
2021/07/05 00:15:33;;;;;;;1.48;1.40;;;22.90;99.90;;;;;;4950131;29;20282;-65
2021/07/05 00:18:03;;;;;;;1.70;1.60;;;22.90;99.90;;;;;;4949754;28;20292;-66
2021/07/05 00:20:31;;;;;;;1.30;1.30;;;22.90;99.90;;;;;;4946118;28;20303;-66
2021/07/05 00:23:00;;;;;;;1.85;1.75;;;22.90;99.90;;;;;;4949053;28;20584;-66
2021/07/05 00:25:27;;;;;;;1.92;1.73;;;22.90;99.90;;;;;;4965106;28;20260;-66
2021/07/05 00:27:55;;;;;;;1.63;1.52;;;22.90;99.90;;;;;;4950492;29;20658;-66
2021/07/05 00:30:22;;;;;;;1.80;1.70;;;22.90;99.90;;;;;;4950735;28;20201;-66
2021/07/05 00:32:50;;;;;;;1.30;1.20;;;22.90;99.90;;;;;;4948502;29;20209;-66
2021/07/05 00:35:18;;;;;;;1.48;1.38;;;22.90;99.90;;;;;;4949721;28;20304;-66
2021/07/05 00:37:46;;;;;;;1.58;1.48;;;22.90;99.90;;;;;;4950127;28;20209;-67
2021/07/05 00:40:16;;;;;;;1.77;1.67;;;23.00;99.90;;;;;;4950179;29;20225;-67
2021/07/05 00:42:44;;;;;;;1.92;1.70;;;22.90;99.90;;;;;;4951002;28;20224;-67
2021/07/05 00:45:12;;;;;;;1.45;1.38;;;22.90;99.90;;;;;;4948131;28;20209;-66
2021/07/05 00:47:39;;;;;;;1.40;1.40;;;22.90;99.90;;;;;;4949755;28;20316;-66
2021/07/05 00:50:09;;;;;;;1.75;1.65;;;22.90;99.90;;;;;;4950189;28;20280;-66
2021/07/05 00:52:37;;;;;;;1.92;1.83;;;22.90;99.90;;;;;;4950619;29;20201;-66
2021/07/05 00:55:06;;;;;;;2.10;2.00;;;22.90;99.90;;;;;;4947841;28;20193;-67
2021/07/05 00:57:35;;;;;;;2.17;2.08;;;22.90;99.90;;;;;;4948285;29;20280;-66
2021/07/05 01:00:04;;;;;;;2.08;1.98;;;22.90;99.90;;;;;;4951978;28;20229;-67
2021/07/05 01:02:31;;;;;;;3.13;1.85;;;22.80;99.90;;;;;;4949635;28;20200;-66
2021/07/05 01:04:58;;;;;;;2.40;2.20;;;22.90;99.90;;;;;;4949233;28;20200;-66
2021/07/05 01:07:25;;;;;;;2.15;2.05;;;22.80;99.90;;;;;;4951322;28;20194;-67
2021/07/05 01:09:52;;;;;;;2.22;2.10;;;22.80;99.90;;;;;;4953770;29;20236;-67
2021/07/05 01:12:20;;;;;;;2.08;1.98;;;22.80;99.90;;;;;;4954013;28;20232;-66
2021/07/05 01:14:48;;;;;;;2.05;1.95;;;22.80;99.90;;;;;;4953331;28;20315;-67
2021/07/05 01:17:15;;;;;;;2.35;1.88;;;22.80;99.90;;;;;;4951061;29;20720;-66
2021/07/05 01:19:45;;;;;;;2.30;2.10;;;22.80;99.90;;;;;;4952536;29;20648;-67
2021/07/05 01:22:14;;;;;;;2.17;2.05;;;22.80;99.90;;;;;;4954072;29;20620;-67
2021/07/05 01:24:42;;;;;;;2.00;1.90;;;22.80;99.90;;;;;;4953726;28;20550;-67
2021/07/05 01:27:10;;;;;;;2.45;2.20;;;22.80;99.90;;;;;;4951702;29;20240;-67
2021/07/05 01:29:38;;;;;;;2.10;2.00;;;22.80;99.90;;;;;;4952808;28;20709;-67
2021/07/05 01:32:06;;;;;;;1.98;1.83;;;22.80;99.90;;;;;;4952907;29;20233;-67
2021/07/05 01:34:33;;;;;;;3.58;1.90;;;22.80;99.90;;;;;;4952595;28;20197;-67
2021/07/05 01:37:00;;;;;;;2.28;2.05;;;22.80;99.90;;;;;;4952751;29;20205;-67
2021/07/05 01:39:29;;;;;;;1.88;1.77;;;22.80;99.90;;;;;;4953592;28;20225;-69
2021/07/05 01:41:56;;;;;;;2.05;1.95;;;22.80;99.90;;;;;;4953493;28;20233;-67
2021/07/05 01:44:23;;;;;;;1.90;1.80;;;22.80;99.90;;;;;;4952524;28;20202;-67
2021/07/05 01:46:50;;;;;;;1.95;1.85;;;22.80;99.90;;;;;;4952125;29;20761;-67
2021/07/05 01:49:17;;;;;;;2.20;2.10;;;22.80;99.90;;;;;;4952155;28;20326;-67
2021/07/05 01:51:44;;;;;;;1.88;1.77;;;22.80;99.90;;;;;;4953192;29;20201;-66
2021/07/05 01:54:14;;;;;;;1.80;1.70;;;22.80;99.90;;;;;;4953324;28;20197;-67
2021/07/05 01:56:43;;;;;;;1.98;1.88;;;22.80;99.90;;;;;;4952342;29;20299;-67
2021/07/05 01:59:11;;;;;;;1.80;1.70;;;22.80;99.90;;;;;;4952593;28;20202;-66
2021/07/05 02:01:38;;;;;;;1.60;1.50;;;22.80;99.90;;;;;;4952082;29;20624;-67
2021/07/05 02:04:06;;;;;;;1.90;1.80;;;22.80;99.90;;;;;;4952624;29;20193;-67
2021/07/05 02:06:34;;;;;;;1.88;1.77;;;22.80;99.90;;;;;;4952660;29;20216;-67
2021/07/05 02:09:01;;;;;;;2.22;1.67;;;22.80;99.90;;;;;;4952359;28;20313;-67
2021/07/05 02:11:28;;;;;;;1.80;1.60;;;22.80;99.90;;;;;;4952781;29;20256;-66
2021/07/05 02:13:56;;;;;;;1.75;1.65;;;22.80;99.90;;;;;;4952934;28;20304;-67
2021/07/05 02:16:23;;;;;;;2.47;2.25;;;22.80;99.90;;;;;;4952023;29;20661;-67
2021/07/05 02:18:50;;;;;;;4.55;1.95;;;22.80;99.90;;;;;;4950054;28;20649;-67
2021/07/05 02:21:17;;;;;;;2.20;2.08;;;22.80;99.90;;;;;;4967234;28;20328;-67
2021/07/05 02:23:44;;;;;;;2.97;2.05;;;22.90;99.90;;;;;;4950956;29;20340;-67
2021/07/05 02:26:11;;;;;;;3.10;2.15;;;22.90;99.90;;;;;;4967027;28;20213;-67
2021/07/05 02:28:40;;;;;;;1.75;1.65;;;22.90;99.90;;;;;;4951441;29;20193;-67
2021/07/05 02:31:10;;;;;;;2.33;1.85;;;22.90;99.90;;;;;;4952279;29;20201;-67
2021/07/05 02:33:37;;;;;;;2.00;1.80;;;22.90;99.90;;;;;;4949092;29;20209;-67
2021/07/05 02:36:06;;;;;;;2.58;2.38;;;22.90;99.90;;;;;;4966930;28;20209;-67
2021/07/05 02:38:34;;;;;;;3.63;1.98;;;22.90;99.90;;;;;;4946108;29;20232;-66
2021/07/05 02:41:03;;;;;;;1.75;1.65;;;22.90;99.90;;;;;;4967021;28;20261;-67
2021/07/05 02:43:30;;;;;;;1.83;1.73;;;22.90;99.90;;;;;;4943923;28;20577;-67
2021/07/05 02:45:58;;;;;;;1.90;1.80;;;22.90;99.90;;;;;;4951981;28;20300;-67
2021/07/05 02:48:29;;;;;;;1.80;1.70;;;22.90;99.90;;;;;;4964470;28;20205;-66
2021/07/05 02:50:59;;;;;;;2.10;2.00;;;22.90;99.90;;;;;;4952422;28;20633;-67
2021/07/05 02:53:26;;;;;;;2.92;1.90;;;22.90;99.90;;;;;;4952142;29;20213;-67
2021/07/05 02:55:53;;;;;;;1.80;1.70;;;22.90;99.90;;;;;;4952355;28;20224;-67
2021/07/05 02:58:20;;;;;;;1.58;1.50;;;22.90;99.90;;;;;;4949292;29;20201;-66
2021/07/05 03:00:50;;;;;;;1.50;1.40;;;22.90;99.90;;;;;;4950478;29;20626;-67
2021/07/05 03:03:17;;;;;;;1.70;1.60;;;22.90;99.90;;;;;;4965378;28;20205;-67
2021/07/05 03:05:45;;;;;;;1.60;1.50;;;22.90;99.90;;;;;;4951605;28;20234;-67
2021/07/05 03:08:12;;;;;;;1.73;1.40;;;22.90;99.90;;;;;;4951311;28;20201;-67
2021/07/05 03:10:41;;;;;;;1.90;1.80;;;22.90;99.90;;;;;;4951682;29;20209;-66
2021/07/05 03:13:11;;;;;;;1.65;1.40;;;22.90;99.90;;;;;;4950221;29;20221;-67
2021/07/05 03:15:38;;;;;;;1.40;1.35;;;22.90;99.90;;;;;;4950981;28;20295;-67
2021/07/05 03:18:06;;;;;;;1.38;1.38;;;23.00;99.90;;;;;;4964898;28;20212;-67
2021/07/05 03:20:35;;;;;;;1.50;1.40;;;23.00;99.90;;;;;;4950124;28;20320;-67
2021/07/05 03:23:07;;;;;;;1.50;1.40;;;23.00;99.90;;;;;;4951600;29;20209;-67
2021/07/05 03:25:36;;;;;;;4.82;1.30;;;23.00;99.90;;;;;;4951199;28;20209;-67
2021/07/05 03:28:04;;;;;;;1.40;1.40;;;23.00;99.90;;;;;;4965483;28;20561;-67
2021/07/05 03:30:32;;;;;;;1.60;1.50;;;23.00;99.90;;;;;;4948678;28;20626;-66
2021/07/05 03:33:00;;;;;;;1.10;1.10;;;23.00;99.90;;;;;;4951131;28;20284;-66
2021/07/05 03:35:27;;;;;;;1.50;1.40;;;23.00;99.90;;;;;;4950591;29;20201;-66
2021/07/05 03:37:55;;;;;;;1.52;1.42;;;23.00;99.90;;;;;;4950972;29;20260;-66
2021/07/05 03:40:25;;;;;;;1.20;1.20;;;23.00;99.90;;;;;;4949232;28;20542;-68
2021/07/05 03:42:53;;;;;;;1.58;1.48;;;23.10;99.90;;;;;;4964914;28;20207;-66
2021/07/05 03:45:21;;;;;;;1.77;1.67;;;23.10;99.90;;;;;;4947712;29;20201;-67
2021/07/05 03:47:49;;;;;;;1.48;1.38;;;23.10;99.90;;;;;;4950197;29;20235;-67
2021/07/05 03:50:17;;;;;;;1.40;1.30;;;23.10;99.90;;;;;;4949872;29;20197;-67
2021/07/05 03:52:45;;;;;;;1.50;1.40;;;23.20;99.90;;;;;;4951116;29;20209;-67
2021/07/05 03:55:14;;;;;;;1.73;1.63;;;23.20;99.90;;;;;;4951028;29;20323;-67
2021/07/05 03:57:43;;;;;;;1.77;1.67;;;23.10;99.90;;;;;;4965418;28;20233;-67
2021/07/05 04:00:14;;;;;;;1.50;1.40;;;23.20;99.90;;;;;;4950043;29;20296;-67
2021/07/05 04:02:41;;;;;;;1.27;1.27;;;23.20;99.90;;;;;;4950153;29;20630;-67
2021/07/05 04:05:08;;;;;;;1.50;1.40;;;23.20;99.90;;;;;;4950093;28;20692;-67
2021/07/05 04:07:36;;;;;;;1.70;1.60;;;23.20;99.90;;;;;;4950856;28;20204;-67
2021/07/05 04:10:05;;;;;;;1.48;1.38;;;23.30;99.90;;;;;;4950307;28;20229;-65
2021/07/05 04:12:33;;;;;;;1.58;1.55;;;23.30;99.90;;;;;;4950921;29;20284;-67
2021/07/05 04:15:02;;;;;;;1.33;1.27;;;23.30;99.90;;;;;;4950450;29;20212;-66
2021/07/05 04:17:29;;;;;;;1.58;1.48;;;23.30;99.90;;;;;;4948388;28;20678;-66
2021/07/05 04:19:56;;;;;;;1.80;1.70;;;23.40;99.90;;;;;;4949595;28;20201;-67
2021/07/05 04:22:23;;;;;;;1.50;1.50;;;23.40;99.90;;;;;;4951383;28;20204;-67
2021/07/05 04:24:50;;;;;;;1.50;1.50;;;23.40;99.90;;;;;;4950587;28;20681;-67
2021/07/05 04:27:17;;;;;;;1.90;1.67;;;23.40;99.90;;;;;;4950427;29;20633;-66
2021/07/05 04:29:45;;;;;;;1.80;1.70;;;23.40;99.90;;;;;;4949771;29;20211;-65
2021/07/05 04:32:13;;;;;;;1.48;1.38;;;23.40;99.90;;;;;;4949579;28;20220;-66
2021/07/05 04:34:40;;;;;;;1.92;1.45;;;23.40;99.90;;;;;;4949895;29;20292;-66
2021/07/05 04:37:07;;;;;;;1.70;1.58;;;23.50;99.90;;;;;;4950438;29;20200;-66
2021/07/05 04:39:34;;;;;;;1.30;1.30;;;23.50;99.90;;;;;;4949970;29;20201;-66
2021/07/05 04:42:02;;;;;;;3.08;1.42;;;23.50;99.90;;;;;;4947959;28;20312;-66
2021/07/05 04:44:29;;;;;;;1.35;1.30;;;23.50;99.90;;;;;;4949229;29;20666;-66
2021/07/05 04:46:56;;;;;;;4.00;1.50;;;23.60;99.90;;;;;;4953049;29;20209;-65
2021/07/05 04:49:26;;;;;;;2.38;1.40;;;23.60;99.90;;;;;;4953516;29;20637;-66
2021/07/05 04:51:53;;;;;;;1.60;1.50;;;23.70;99.90;;;;;;4954285;28;20213;-65
2021/07/05 04:54:20;;;;;;;1.60;1.50;;;23.70;99.90;;;;;;4954263;29;20617;-67
2021/07/05 04:56:47;;;;;;;1.95;1.85;;;23.70;99.90;;;;;;4953965;28;20331;-65
2021/07/05 04:59:15;;;;;;;2.90;1.70;;;23.80;99.90;;;;;;4953684;29;20263;-65
2021/07/05 05:01:44;;;;;;;2.38;1.85;;;23.70;99.90;;;;;;4952614;29;20225;-66
2021/07/05 05:04:11;;;;;;;1.73;1.63;;;23.80;99.90;;;;;;4951935;29;20713;-66
2021/07/05 05:06:40;;;;;;;1.98;1.88;;;23.80;99.90;;;;;;4952606;28;20217;-66
2021/07/05 05:09:07;;;;;;;1.85;1.73;;;23.80;99.90;;;;;;4953871;28;20272;-66
2021/07/05 05:11:34;;;;;;;1.80;1.70;;;23.90;99.90;;;;;;4953601;28;20304;-66
2021/07/05 05:14:01;;;;;;;1.80;1.70;;;23.90;99.90;;;;;;4952889;28;20333;-66
2021/07/05 05:16:28;;;;;;;2.72;1.60;;;23.90;99.90;;;;;;4953094;28;20280;-66
2021/07/05 05:18:55;;;;;;;1.30;1.30;;;23.90;99.90;;;;;;4950280;28;20645;-66
2021/07/05 05:21:22;;;;;;;1.52;1.42;;;23.90;99.90;;;;;;4953490;28;20732;-66
2021/07/05 05:23:50;;;;;;;1.02;1.02;;;23.90;99.90;;;;;;4953486;28;20786;-66
2021/07/05 05:26:17;;;;;;;0.90;0.90;;;23.90;99.90;;;;;;4953624;28;20251;-66
2021/07/05 05:28:45;;;;;;;1.08;1.08;;;23.90;99.90;;;;;;4953153;29;20225;-67
2021/07/05 05:31:12;;;;;;;1.00;1.00;;;23.90;99.90;;;;;;4952661;29;20300;-66
2021/07/05 05:33:39;;;;;;;1.10;1.08;;;24.00;99.90;;;;;;4951273;28;20216;-66
2021/07/05 05:36:06;;;;;;;1.02;0.90;;;24.00;99.90;;;;;;4953813;29;20596;-66
2021/07/05 05:38:33;;;;;;;1.10;1.00;;;24.00;99.90;;;;;;4952710;29;20560;-66
2021/07/05 05:41:02;;;;;;;1.10;1.00;;;24.00;99.90;;;;;;4967644;28;20333;-66
2021/07/05 05:43:29;;;;;;;0.95;0.95;;;24.10;99.90;;;;;;4951568;28;20634;-65
2021/07/05 05:46:01;;;;;;;0.88;0.88;;;24.10;99.90;;;;;;4967912;28;20320;-67
2021/07/05 05:48:28;;;;;;;1.10;1.10;;;24.10;99.90;;;;;;4950718;28;20525;-67
2021/07/05 05:50:55;;;;;;;0.95;0.95;;;24.20;99.90;;;;;;4953275;29;20280;-67
2021/07/05 05:53:23;;;;;;;1.20;1.20;;;24.30;99.90;;;;;;4963462;28;20704;-67
2021/07/05 05:55:50;;;;;;;1.10;1.00;;;24.30;99.90;;;;;;4967519;28;20207;-66
2021/07/05 05:58:19;;;;;;;0.80;0.80;;;24.40;99.90;;;;;;4963068;28;20264;-66
2021/07/05 06:00:46;;;;;;;1.02;1.00;;;24.50;99.90;;;;;;4944837;29;20232;-66
2021/07/05 06:03:13;;;;;;;1.00;1.00;;;24.60;99.90;;;;;;4951445;29;20212;-66
2021/07/05 06:05:40;;;;;;;0.90;0.90;;;24.60;99.90;;;;;;4952484;29;20201;-66
2021/07/05 06:08:07;;;;;;;0.90;0.90;;;24.70;99.90;;;;;;4952987;28;20205;-67
2021/07/05 06:10:34;;;;;;;1.10;1.10;;;24.80;99.90;;;;;;4952028;29;20205;-65
2021/07/05 06:13:01;;;;;;;0.90;0.90;;;25.00;99.90;;;;;;4952664;29;20221;-67
2021/07/05 06:15:30;;;;;;;0.90;0.90;;;25.10;99.90;;;;;;4952378;29;20214;-65
2021/07/05 06:17:57;;;;;;;1.00;1.00;;;25.20;99.90;;;;;;4951992;29;20768;-66
2021/07/05 06:20:24;;;;;;;0.80;0.80;;;25.30;99.90;;;;;;4951856;28;20748;-66
2021/07/05 06:22:53;;;;;;;0.80;0.80;;;25.30;99.90;;;;;;4951139;28;20213;-66
2021/07/05 06:25:20;;;;;;;0.90;0.90;;;25.40;99.90;;;;;;4967385;28;20298;-66
2021/07/05 06:27:48;;;;;;;1.00;1.00;;;25.40;99.90;;;;;;4952715;28;20203;-66
2021/07/05 06:30:16;;;;;;;1.05;1.05;;;25.40;99.90;;;;;;4950249;29;20240;-65
2021/07/05 06:32:45;;;;;;;1.10;1.10;;;25.40;99.90;;;;;;4939111;29;20204;-66
2021/07/05 06:35:13;;;;;;;0.98;0.98;;;25.40;99.90;;;;;;4950252;28;20209;-66
2021/07/05 06:37:41;;;;;;;1.13;1.13;;;25.40;99.90;;;;;;4951551;29;20201;-67
2021/07/05 06:40:09;;;;;;;0.68;0.68;;;25.50;99.90;;;;;;4946074;29;20856;-66
2021/07/05 06:42:37;;;;;;;1.02;1.02;;;25.50;99.90;;;;;;4948536;29;20284;-66
2021/07/05 06:45:06;;;;;;;1.02;1.02;;;25.50;99.90;;;;;;4948362;29;20257;-67
2021/07/05 06:47:33;;;;;;;1.00;1.00;;;25.60;99.90;;;;;;4950636;28;20221;-66
2021/07/05 06:50:01;;;;;;;1.00;1.00;;;25.60;99.90;;;;;;4949691;28;20215;-67
2021/07/05 06:52:33;;;;;;;1.40;1.40;;;25.50;99.90;;;;;;4946045;28;20206;-67
2021/07/05 06:55:00;;;;;;;0.70;0.70;;;25.50;99.90;;;;;;4947660;29;20205;-66
2021/07/05 06:57:30;;;;;;;1.02;0.88;;;25.50;99.90;;;;;;4950435;29;20198;-66
2021/07/05 06:59:59;;;;;;;1.20;1.10;;;25.50;99.90;;;;;;4948704;29;20209;-66
2021/07/05 07:02:26;;;;;;;1.02;1.02;;;25.50;99.90;;;;;;4949360;29;20224;-66
2021/07/05 07:04:54;;;;;;;1.45;1.42;;;25.50;99.90;;;;;;4948902;28;20197;-64
2021/07/05 07:07:22;;;;;;;1.40;1.33;;;25.60;99.90;;;;;;4951296;28;20205;-65
2021/07/05 07:09:49;;;;;;;1.10;1.10;;;25.50;99.90;;;;;;4944695;28;20299;-64
2021/07/05 07:12:17;;;;;;;1.40;1.33;;;25.60;99.90;;;;;;4963170;28;20212;-65
2021/07/05 07:14:44;;;;;;;1.40;1.30;;;25.60;99.90;;;;;;4949618;28;20299;-65
2021/07/05 07:17:19;;;;;;;1.98;1.20;;;25.70;99.90;;;;;;4946970;29;20566;-65
2021/07/05 07:19:46;;;;;;;1.00;1.00;;;25.70;99.90;;;;;;4967109;28;20677;-65
2021/07/05 07:22:13;;;;;;;1.33;1.33;;;25.80;99.90;;;;;;4947922;29;20607;-65
2021/07/05 07:24:41;;;;;;;1.30;1.20;;;25.90;99.90;;;;;;4949286;29;20186;-65
2021/07/05 07:27:08;;;;;;;1.23;1.20;;;25.90;99.90;;;;;;4949582;28;20244;-64
2021/07/05 07:29:35;;;;;;;1.20;1.20;;;25.90;99.90;;;;;;4963558;28;20570;-63
2021/07/05 07:32:02;;;;;;;1.10;1.10;;;26.00;99.90;;;;;;4949360;28;20558;-64
2021/07/05 07:34:29;;;;;;;1.42;1.33;;;26.10;99.90;;;;;;4946546;28;20315;-64
2021/07/05 07:37:00;;;;;;;1.42;1.33;;;26.20;99.90;;;;;;4950112;29;20194;-65
2021/07/05 07:39:31;;;;;;;2.53;1.48;;;26.30;99.90;;;;;;4948499;28;20193;-64
2021/07/05 07:41:59;;;;;;;1.70;1.60;;;26.30;99.90;;;;;;4949010;28;20244;-64
2021/07/05 07:44:26;;;;;;;1.67;1.58;;;26.40;99.90;;;;;;4946282;28;20279;-64
2021/07/05 07:46:53;;;;;;;1.75;1.60;;;26.60;99.90;;;;;;4948445;29;20602;-64
2021/07/05 07:49:20;;;;;;;1.30;1.30;;;26.60;99.90;;;;;;4948976;28;20630;-64
2021/07/05 07:51:47;;;;;;;1.70;1.60;;;26.80;99.90;;;;;;4949018;28;20611;-65
2021/07/05 07:54:14;;;;;;;1.70;1.60;;;26.80;99.90;;;;;;4963485;28;20227;-65
2021/07/05 07:56:41;;;;;;;3.85;1.67;;;26.80;99.90;;;;;;4949530;28;20291;-65
2021/07/05 07:59:10;;;;;;;1.50;1.50;;;26.70;99.90;;;;;;4945546;28;20573;-64
2021/07/05 08:01:37;;;;;;;2.10;2.00;;;26.80;99.90;;;;;;4947680;29;20236;-65
2021/07/05 08:04:04;;;;;;;1.95;1.85;;;26.80;99.90;;;;;;4947979;28;20244;-65
2021/07/05 08:06:31;;;;;;;1.75;1.70;;;26.80;99.90;;;;;;4953343;28;20201;-65
2021/07/05 08:09:00;;;;;;;1.77;1.70;;;26.80;99.90;;;;;;4947569;28;20202;-65
2021/07/05 08:11:27;;;;;;;1.90;1.80;;;26.80;99.90;;;;;;4948426;29;20284;-65
2021/07/05 08:13:54;;;;;;;1.70;1.60;;;26.90;99.90;;;;;;4949338;29;20255;-65
2021/07/05 08:16:23;;;;;;;2.25;1.63;;;26.90;99.90;;;;;;4948040;29;20291;-66
2021/07/05 08:18:50;;;;;;;1.65;1.50;;;26.90;99.90;;;;;;4935551;28;20381;-66
2021/07/05 08:21:18;;;;;;;2.35;1.90;;;27.10;99.90;;;;;;4951999;28;20263;-65
2021/07/05 08:23:45;;;;;;;1.65;1.55;;;26.80;99.90;;;;;;4944666;28;20759;-66
2021/07/05 08:26:12;;;;;;;2.25;2.05;;;26.70;99.90;;;;;;4949079;28;20643;-66
2021/07/05 08:28:39;;;;;;;2.00;1.90;;;26.70;99.90;;;;;;4943604;28;20257;-66
2021/07/05 08:31:07;;;;;;;3.65;1.70;;;26.60;99.90;;;;;;4937514;28;20199;-66
2021/07/05 08:33:36;;;;;;;2.70;1.65;;;26.50;99.90;;;;;;4945475;28;20672;-66
2021/07/05 08:36:04;;;;;;;1.95;1.52;;;26.40;99.90;;;;;;4948256;28;20276;-66
2021/07/05 08:38:31;;;;;;;1.55;1.50;;;26.50;99.90;;;;;;4947424;28;20706;-66
2021/07/05 08:41:00;;;;;;;1.73;1.63;;;26.50;99.90;;;;;;4948730;28;20319;-64
2021/07/05 08:43:29;;;;;;;1.52;1.42;;;26.60;99.90;;;;;;4944947;29;20231;-65
2021/07/05 08:46:01;;;;;;;1.80;1.40;;;26.60;99.90;;;;;;4948885;29;20208;-65
2021/07/05 08:48:30;;;;;;;1.88;1.77;;;26.60;99.90;;;;;;4945304;28;20217;-65
2021/07/05 08:51:00;;;;;;;1.75;1.65;;;26.70;99.90;;;;;;4948129;29;20635;-65
2021/07/05 08:53:27;;;;;;;1.83;1.60;;;26.60;99.90;;;;;;4948317;29;20193;-65
2021/07/05 08:55:54;;;;;;;1.48;1.40;;;26.60;99.90;;;;;;4948614;28;20205;-65
2021/07/05 08:58:21;;;;;;;1.30;1.30;;;26.60;99.90;;;;;;4946436;29;20288;-65
2021/07/05 09:00:49;;;;;;;1.80;1.50;;;26.60;99.90;;;;;;4948163;28;20209;-65
2021/07/05 09:03:21;;;;;;;1.50;1.50;;;26.60;99.90;;;;;;4946353;29;20225;-65
2021/07/05 09:06:09;;;;;;;1.30;1.30;;;26.70;99.90;;;;;;4947778;29;20432;-65
2021/07/05 09:08:39;;;;;;;1.75;1.65;;;26.70;99.90;;;;;;4948136;28;20536;-65
2021/07/05 09:11:07;;;;;;;1.65;1.55;;;26.80;99.90;;;;;;4942491;29;20198;-66
2021/07/05 09:13:44;;;;;;;2.10;2.00;;;26.80;99.90;;;;;;4948098;29;20205;-67
2021/07/05 09:16:12;;;;;;;2.08;1.77;;;26.70;99.90;;;;;;4948024;28;20205;-66
2021/07/05 09:18:43;;;;;;;1.95;1.40;;;26.80;99.90;;;;;;4947228;28;20205;-66
2021/07/05 09:21:18;;;;;;;1.88;1.77;;;26.90;99.90;;;;;;4948589;29;20249;-66
2021/07/05 09:23:47;;;;;;;2.00;1.90;;;27.00;99.90;;;;;;4938253;29;20201;-66
2021/07/05 09:26:23;;;;;;;1.38;1.38;;;27.10;99.90;;;;;;4948563;29;20205;-66
2021/07/05 09:28:52;;;;;;;1.70;1.60;;;27.20;99.90;;;;;;4949648;28;20200;-66
2021/07/05 09:31:35;;;;;;;1.77;1.58;;;27.50;99.90;;;;;;4951056;29;20209;-67
2021/07/05 09:34:04;;;;;;;1.65;1.55;;;27.80;99.90;;;;;;4950377;28;20623;-66
2021/07/05 09:36:32;;;;;;;1.55;1.48;;;28.10;99.90;;;;;;4951589;28;20626;-66
2021/07/05 09:39:11;;;;;;;2.35;1.50;;;28.40;99.90;;;;;;4949726;28;20614;-67
2021/07/05 09:41:38;;;;;;;1.65;1.50;;;28.60;99.90;;;;;;4951229;29;20699;-67
2021/07/05 09:44:11;;;;;;;1.50;1.50;;;28.80;99.90;;;;;;4949354;28;20267;-66
2021/07/05 09:46:41;;;;;;;3.03;1.48;;;29.10;99.90;;;;;;4950498;29;20314;-67
2021/07/05 09:49:17;;;;;;;1.52;1.50;;;29.30;99.90;;;;;;4964485;28;20201;-67
2021/07/05 09:51:47;;;;;;;1.42;1.42;;;29.60;99.90;;;;;;4951581;29;20208;-66
2021/07/05 09:54:26;;;;;;;1.88;1.77;;;30.00;99.90;;;;;;4951302;29;20225;-66
2021/07/05 09:56:54;;;;;;;1.80;1.70;;;30.20;99.40;;;;;;4950694;28;20275;-66
2021/07/05 09:59:22;;;;;;;2.00;1.90;;;30.50;98.80;;;;;;4948811;29;20194;-67
2021/07/05 10:01:51;;;;;;;1.85;1.75;;;30.70;97.80;;;;;;4962949;28;20228;-66
2021/07/05 10:04:26;;;;;;;2.03;1.60;;;30.80;96.90;;;;;;4945317;29;20228;-67
2021/07/05 10:06:55;;;;;;;1.67;1.58;;;30.80;95.70;;;;;;4951717;29;20688;-66
2021/07/05 10:09:33;;;;;;;1.70;1.60;;;31.00;95.40;;;;;;4950919;28;20284;-66
2021/07/05 10:12:16;;;;;;;1.45;1.45;;;31.10;94.50;;;;;;4950094;29;20208;-66
2021/07/05 10:14:43;;;;;;;1.73;1.63;;;31.20;93.60;;;;;;4946620;28;20225;-65
2021/07/05 10:17:15;;;;;;;3.67;1.75;;;31.40;92.50;;;;;;4946963;28;20551;-66
2021/07/05 10:19:42;;;;;;;2.65;2.20;;;31.70;91.30;;;;;;4945910;28;20295;-66
2021/07/05 10:22:12;;;;;;;2.00;1.90;;;31.90;90.10;;;;;;4947410;29;20237;-67
2021/07/05 10:24:41;;;;;;;2.05;1.77;;;31.90;88.40;;;;;;4946038;28;20216;-66
2021/07/05 10:27:09;;;;;;;1.70;1.60;;;32.00;87.20;;;;;;4948340;29;20194;-67
2021/07/05 10:29:37;;;;;;;1.70;1.65;;;32.20;85.70;;;;;;4942570;28;20215;-67
2021/07/05 10:32:05;;;;;;;2.00;1.90;;;32.30;84.40;;;;;;4947383;29;20316;-67
2021/07/05 10:34:33;;;;;;;2.13;1.92;;;32.30;83.40;;;;;;4946511;29;20204;-67
2021/07/05 10:37:03;;;;;;;1.83;1.73;;;32.30;83.10;;;;;;4949084;29;20206;-66
2021/07/05 10:39:32;;;;;;;2.15;1.95;;;32.30;83.10;;;;;;4948646;28;20229;-66
2021/07/05 10:41:59;;;;;;;3.85;1.70;;;32.30;81.50;;;;;;4949599;28;20312;-67
2021/07/05 10:44:41;;;;;;;1.63;1.52;;;32.20;81.00;;;;;;4945265;29;20220;-66
2021/07/05 10:47:08;;;;;;;2.42;1.95;;;32.10;80.80;;;;;;4949183;29;20296;-66
2021/07/05 10:49:50;;;;;;;1.92;1.80;;;32.10;79.80;;;;;;4949045;28;21040;-66
2021/07/05 10:52:20;;;;;;;1.63;1.52;;;32.00;79.30;;;;;;4961554;28;20224;-65
2021/07/05 10:54:54;;;;;;;1.85;1.75;;;32.10;79.70;;;;;;4949364;28;20289;-65
2021/07/05 10:57:23;;;;;;;1.98;1.80;;;32.20;79.10;;;;;;4950253;28;20213;-65
2021/07/05 10:59:52;;;;;;;3.58;2.00;;;32.30;77.90;;;;;;4947479;28;20209;-65
2021/07/05 11:02:43;;;;;;;1.80;1.70;;;32.30;77.20;;;;;;4941416;29;20296;-66
2021/07/05 11:05:34;;;;;;;1.55;1.42;;;32.20;75.90;;;;;;4942810;28;20231;-64
2021/07/05 11:08:23;;;;;;;1.83;1.73;;;32.20;76.30;;;;;;4948624;29;20233;-64
2021/07/05 11:11:16;;;;;;;2.35;1.77;;;32.10;75.50;;;;;;4950914;28;20205;-64
2021/07/05 11:13:44;;;;;;;1.85;1.70;;;32.10;75.60;;;;;;4950416;28;20229;-66
2021/07/05 11:16:12;;;;;;;5.55;1.70;;;32.40;75.40;;;;;;4950168;29;20197;-66
2021/07/05 11:19:09;;;;;;;2.85;1.70;;;32.50;74.10;;;;;;4947596;29;20622;-66
2021/07/05 11:22:04;;;;;;;1.83;1.70;;;32.40;73.30;;;;;;4949558;29;20205;-66
2021/07/05 11:24:56;;;;;;;2.10;1.60;;;32.40;73.30;;;;;;4941755;29;20683;-66
2021/07/05 11:27:49;;;;;;;1.60;1.50;;;32.40;72.10;;;;;;4949243;28;20201;-65
2021/07/05 11:30:31;;;;;;;1.70;1.60;;;32.40;71.80;;;;;;4948954;28;20258;-66
2021/07/05 11:33:01;;;;;;;1.90;1.80;;;32.20;72.20;;;;;;4949434;28;20197;-65
2021/07/05 11:35:37;;;;;;;2.97;1.85;;;32.00;72.70;;;;;;4948939;28;20208;-65
2021/07/05 11:38:08;;;;;;;1.60;1.52;;;31.90;72.90;;;;;;4949413;29;20197;-65
2021/07/05 11:40:43;;;;;;;1.92;1.60;;;31.60;74.30;;;;;;4950011;28;20260;-67
2021/07/05 11:43:12;;;;;;;1.70;1.60;;;31.50;73.90;;;;;;4945395;28;20229;-66
2021/07/05 11:45:42;;;;;;;2.28;2.08;;;31.50;74.20;;;;;;4942607;28;20289;-66
2021/07/05 11:48:11;;;;;;;1.80;1.70;;;31.50;74.10;;;;;;4938212;29;20687;-67
2021/07/05 11:50:41;;;;;;;2.63;1.60;;;31.50;74.60;;;;;;4948583;29;20209;-67
2021/07/05 11:53:14;;;;;;;4.30;1.85;;;31.40;73.90;;;;;;4948148;28;20565;-67
2021/07/05 11:55:41;;;;;;;2.00;1.80;;;31.30;74.40;;;;;;4948714;29;20205;-66
2021/07/05 11:58:10;;;;;;;1.92;1.80;;;31.30;74.90;;;;;;4949973;29;20574;-66
2021/07/05 12:00:39;;;;;;;2.78;1.90;;;31.60;74.90;;;;;;4949065;28;20198;-66
2021/07/05 12:03:08;;;;;;;2.35;1.90;;;32.10;74.30;;;;;;4950396;28;20967;-67
2021/07/05 12:05:36;;;;;;;1.90;1.80;;;32.50;72.70;;;;;;4943631;28;20201;-66
2021/07/05 12:08:05;;;;;;;2.25;2.13;;;32.70;71.90;;;;;;4947844;29;20260;-66
2021/07/05 12:10:33;;;;;;;2.10;2.00;;;32.90;71.20;;;;;;4944273;28;20620;-67
2021/07/05 12:13:17;;;;;;;1.85;1.75;;;32.90;71.00;;;;;;4946353;28;20642;-66
2021/07/05 12:15:46;;;;;;;2.05;1.90;;;33.00;70.80;;;;;;4944832;29;20197;-65
2021/07/05 12:18:16;;;;;;;1.83;1.73;;;33.20;70.80;;;;;;4948065;29;20201;-66
2021/07/05 12:20:44;;;;;;;2.30;2.10;;;33.40;70.00;;;;;;4948590;29;20212;-66
2021/07/05 12:23:12;;;;;;;1.90;1.80;;;33.40;68.90;;;;;;4948578;28;20642;-66
2021/07/05 12:25:39;;;;;;;2.53;1.75;;;33.40;69.30;;;;;;4946760;29;20233;-66
2021/07/05 12:28:11;;;;;;;1.90;1.80;;;33.40;68.20;;;;;;4948339;28;20288;-66
2021/07/05 12:30:46;;;;;;;1.75;1.65;;;33.50;68.40;;;;;;4949477;29;20615;-66
2021/07/05 12:33:13;;;;;;;2.42;1.88;;;33.50;68.70;;;;;;4943971;29;20267;-66
2021/07/05 12:35:41;;;;;;;2.95;2.00;;;33.30;67.20;;;;;;4946172;29;20304;-66
2021/07/05 12:38:11;;;;;;;1.98;1.80;;;33.10;67.10;;;;;;4948505;29;20229;-66
2021/07/05 12:40:39;;;;;;;3.55;1.92;;;32.70;66.80;;;;;;4948171;29;20239;-66
2021/07/05 12:43:09;;;;;;;1.92;1.83;;;32.50;67.10;;;;;;4946747;29;20223;-66
2021/07/05 12:45:39;;;;;;;1.45;1.45;;;32.10;67.70;;;;;;4946722;28;20570;-67
2021/07/05 12:48:14;;;;;;;1.70;1.60;;;31.90;68.30;;;;;;4947044;28;20208;-66
2021/07/05 12:50:47;;;;;;;1.83;1.73;;;31.70;68.70;;;;;;4948635;28;20205;-67
2021/07/05 12:53:17;;;;;;;2.20;2.00;;;31.50;68.40;;;;;;4947348;29;20733;-66
2021/07/05 12:55:54;;;;;;;1.83;1.73;;;31.10;69.20;;;;;;4946817;28;20305;-66
2021/07/05 12:58:49;;;;;;;1.70;1.60;;;30.90;70.10;;;;;;4962076;28;20209;-68